Airfield :
LOGIN :

Register | Disclaimer

   EN    FR    IT 

 










Legend :    VFR   Marginal VFR   IFR   Intensive IFR   Very Intensive IFR
Visi :
Ceiling :
>= 8 km
>= 3000ft
5 to 8 km
1000 to 3000 ft
1500m to 5 km
500 to 1000 ft
800 to 1500m
200 to 500 ft
< 800m
< 200 ft
Symbols :   Thunderstorms  Fog  Heavy snow  Heavy precipitations  Wind > 20 kt
SIGMETs :     Misc.  Thunderstorms  Icing  Turbulence  Mountain Waves  Volcanic Ashes







- Airport Elevation : 72 ft
- IATA code : UDE


EHVK - Volkel Airbase

CURRENT METAR :
  • 171525Z AUTO 18006KT 090V230 9999 FEW066 26/12 Q1017 BLU

EXPIRED METARs :
  • 171455Z AUTO 13005KT 070V230 9999 FEW061 26/12 Q1018 BLU
  • 171425Z AUTO 17004KT 080V180 9999 SCT057 OVC260 25/12 Q1018 BLU
  • 171420Z AUTO 16004KT 060V180 9999 FEW058 OVC260 25/11 Q1018 BLU
  • 171355Z AUTO 11005KT 110V190 9999 BKN059 26/14 Q1018 BLU 17005KT CAVOK
  • 171325Z AUTO 21007KT 090V190 9999 BKN059 26/12 Q1018 BLU 17005KT CAVOK
  • 171255Z AUTO 14005KT 120V220 9999 SCT055 25/12 Q1018 BLU 17005KT CAVOK
  • 171241Z AUTO VRB06KT 9999 FEW054 SCT060 26/13 Q1019 BLU 17005KT CAVOK

TAF TAF EHVK
Valid from the 17 at 13:00 until the 18 at 01:00 UTC


171226Z 1713/1801 18005KT CAVOK
BECMG 1717/1719 VRB03KT
No reported NOTAMs for that airfield.



MET'MAP, your aeronautical weather chart ! - Copyright ORBIFLY December 2007 - Disclaimer

ORBIFLY MET'MAP TEAM :

Programming & Development : Alexandra Zaïnal
Concept & Development : Baudouin d'Aumeries
Co-Development & Prog : Marc-Olivier Méhu
Technical & hardware support : Manuel Goepfert

Contact : metmap@orbifly.com




SOURCES & CREDITS :

   NOAA